sensor_id;sensor_type;location;lat;lon;timestamp;temperature;humidity
73939;DHT22;62291;47.554;8.504;2023-05-29T00:01:24;15.70;77.80
73939;DHT22;62291;47.554;8.504;2023-05-29T00:03:51;15.50;77.30
73939;DHT22;62291;47.554;8.504;2023-05-29T00:06:16;15.20;81.80
73939;DHT22;62291;47.554;8.504;2023-05-29T00:08:42;14.90;82.80
73939;DHT22;62291;47.554;8.504;2023-05-29T00:11:07;14.60;83.50
73939;DHT22;62291;47.554;8.504;2023-05-29T00:13:33;14.50;81.70
73939;DHT22;62291;47.554;8.504;2023-05-29T00:15:59;14.70;79.90
73939;DHT22;62291;47.554;8.504;2023-05-29T00:18:26;14.80;80.40
73939;DHT22;62291;47.554;8.504;2023-05-29T00:20:52;14.90;79.70
73939;DHT22;62291;47.554;8.504;2023-05-29T00:23:18;14.90;79.70
73939;DHT22;62291;47.554;8.504;2023-05-29T00:25:44;14.80;81.60
73939;DHT22;62291;47.554;8.504;2023-05-29T00:28:10;14.70;82.20
73939;DHT22;62291;47.554;8.504;2023-05-29T00:30:37;14.60;83.90
73939;DHT22;62291;47.554;8.504;2023-05-29T00:33:05;14.40;84.00
73939;DHT22;62291;47.554;8.504;2023-05-29T00:35:31;14.10;83.90
73939;DHT22;62291;47.554;8.504;2023-05-29T00:37:57;14.00;88.50
73939;DHT22;62291;47.554;8.504;2023-05-29T00:40:23;13.60;89.20
73939;DHT22;62291;47.554;8.504;2023-05-29T00:42:49;13.40;89.50
73939;DHT22;62291;47.554;8.504;2023-05-29T00:45:14;13.20;90.30
73939;DHT22;62291;47.554;8.504;2023-05-29T00:47:41;12.90;91.40
73939;DHT22;62291;47.554;8.504;2023-05-29T00:50:08;12.70;92.40
73939;DHT22;62291;47.554;8.504;2023-05-29T00:52:34;12.50;92.40
73939;DHT22;62291;47.554;8.504;2023-05-29T00:54:59;12.50;94.00
73939;DHT22;62291;47.554;8.504;2023-05-29T00:57:27;12.40;93.90
73939;DHT22;62291;47.554;8.504;2023-05-29T00:59:53;12.40;93.80
73939;DHT22;62291;47.554;8.504;2023-05-29T01:02:19;12.30;93.90
73939;DHT22;62291;47.554;8.504;2023-05-29T01:04:45;12.00;95.80
73939;DHT22;62291;47.554;8.504;2023-05-29T01:07:11;11.80;94.50
73939;DHT22;62291;47.554;8.504;2023-05-29T01:09:37;11.60;95.70
73939;DHT22;62291;47.554;8.504;2023-05-29T01:12:08;11.40;95.80
73939;DHT22;62291;47.554;8.504;2023-05-29T01:19:59;11.10;97.20
73939;DHT22;62291;47.554;8.504;2023-05-29T01:25:03;11.00;97.70
73939;DHT22;62291;47.554;8.504;2023-05-29T01:27:30;10.90;97.80
73939;DHT22;62291;47.554;8.504;2023-05-29T01:29:56;10.80;97.80
73939;DHT22;62291;47.554;8.504;2023-05-29T01:32:22;10.80;98.30
73939;DHT22;62291;47.554;8.504;2023-05-29T01:34:48;10.70;98.50
73939;DHT22;62291;47.554;8.504;2023-05-29T01:37:13;10.70;98.40
73939;DHT22;62291;47.554;8.504;2023-05-29T01:39:39;10.60;98.10
73939;DHT22;62291;47.554;8.504;2023-05-29T01:42:05;10.50;98.10
73939;DHT22;62291;47.554;8.504;2023-05-29T01:44:33;10.50;98.80
73939;DHT22;62291;47.554;8.504;2023-05-29T01:46:59;10.40;99.90
73939;DHT22;62291;47.554;8.504;2023-05-29T01:49:24;10.30;99.40
73939;DHT22;62291;47.554;8.504;2023-05-29T01:51:51;10.30;99.80
73939;DHT22;62291;47.554;8.504;2023-05-29T01:54:16;10.20;99.90
73939;DHT22;62291;47.554;8.504;2023-05-29T01:56:42;10.20;99.90
73939;DHT22;62291;47.554;8.504;2023-05-29T01:59:08;10.20;99.70
73939;DHT22;62291;47.554;8.504;2023-05-29T02:01:35;10.10;99.90
73939;DHT22;62291;47.554;8.504;2023-05-29T02:04:03;10.10;99.90
73939;DHT22;62291;47.554;8.504;2023-05-29T02:06:29;10.20;99.90
73939;DHT22;62291;47.554;8.504;2023-05-29T02:08:56;10.10;99.90
73939;DHT22;62291;47.554;8.504;2023-05-29T02:11:21;10.20;99.90
73939;DHT22;62291;47.554;8.504;2023-05-29T02:13:47;10.10;99.90
73939;DHT22;62291;47.554;8.504;2023-05-29T02:16:12;10.00;99.90
73939;DHT22;62291;47.554;8.504;2023-05-29T02:18:38;9.90;99.90
73939;DHT22;62291;47.554;8.504;2023-05-29T02:21:04;9.90;99.90
73939;DHT22;62291;47.554;8.504;2023-05-29T02:23:30;9.80;99.90
73939;DHT22;62291;47.554;8.504;2023-05-29T02:25:55;9.80;99.90
73939;DHT22;62291;47.554;8.504;2023-05-29T02:28:21;9.70;99.90
73939;DHT22;62291;47.554;8.504;2023-05-29T02:30:46;9.60;99.90
73939;DHT22;62291;47.554;8.504;2023-05-29T02:33:12;9.60;99.90
73939;DHT22;62291;47.554;8.504;2023-05-29T02:35:37;9.60;99.90
73939;DHT22;62291;47.554;8.504;2023-05-29T02:38:03;9.50;99.90
73939;DHT22;62291;47.554;8.504;2023-05-29T02:40:28;9.50;99.90
73939;DHT22;62291;47.554;8.504;2023-05-29T02:42:54;9.50;99.90
73939;DHT22;62291;47.554;8.504;2023-05-29T02:45:20;9.50;99.90
73939;DHT22;62291;47.554;8.504;2023-05-29T02:47:45;9.50;99.90
73939;DHT22;62291;47.554;8.504;2023-05-29T02:50:11;9.40;99.90
73939;DHT22;62291;47.554;8.504;2023-05-29T02:52:36;9.40;99.90
73939;DHT22;62291;47.554;8.504;2023-05-29T02:55:02;9.30;99.90
73939;DHT22;62291;47.554;8.504;2023-05-29T02:57:29;9.30;99.90
73939;DHT22;62291;47.554;8.504;2023-05-29T02:59:54;9.30;99.90
73939;DHT22;62291;47.554;8.504;2023-05-29T03:02:20;9.20;99.90
73939;DHT22;62291;47.554;8.504;2023-05-29T03:04:46;9.20;99.90
73939;DHT22;62291;47.554;8.504;2023-05-29T03:07:11;9.20;99.90
73939;DHT22;62291;47.554;8.504;2023-05-29T03:09:38;9.10;99.90
73939;DHT22;62291;47.554;8.504;2023-05-29T03:12:03;9.10;99.90
73939;DHT22;62291;47.554;8.504;2023-05-29T03:14:29;9.10;99.90
73939;DHT22;62291;47.554;8.504;2023-05-29T03:16:55;9.00;99.90
73939;DHT22;62291;47.554;8.504;2023-05-29T03:19:21;9.00;99.90
73939;DHT22;62291;47.554;8.504;2023-05-29T03:21:47;8.90;99.90
73939;DHT22;62291;47.554;8.504;2023-05-29T03:24:12;8.90;99.90
73939;DHT22;62291;47.554;8.504;2023-05-29T03:26:41;8.80;99.90
73939;DHT22;62291;47.554;8.504;2023-05-29T03:29:06;8.80;99.90
73939;DHT22;62291;47.554;8.504;2023-05-29T03:31:32;8.80;99.90
73939;DHT22;62291;47.554;8.504;2023-05-29T03:33:58;8.80;99.90
73939;DHT22;62291;47.554;8.504;2023-05-29T03:36:24;8.70;99.90
73939;DHT22;62291;47.554;8.504;2023-05-29T03:38:49;8.70;99.90
73939;DHT22;62291;47.554;8.504;2023-05-29T03:41:15;8.70;99.90
73939;DHT22;62291;47.554;8.504;2023-05-29T03:43:41;8.70;99.90
73939;DHT22;62291;47.554;8.504;2023-05-29T03:46:06;8.70;99.90
73939;DHT22;62291;47.554;8.504;2023-05-29T03:48:32;8.70;99.90
73939;DHT22;62291;47.554;8.504;2023-05-29T03:50:57;8.80;99.90
73939;DHT22;62291;47.554;8.504;2023-05-29T03:53:23;8.80;99.90
73939;DHT22;62291;47.554;8.504;2023-05-29T03:55:48;8.80;99.90
73939;DHT22;62291;47.554;8.504;2023-05-29T03:58:14;8.80;99.90
73939;DHT22;62291;47.554;8.504;2023-05-29T04:00:41;8.90;99.90
73939;DHT22;62291;47.554;8.504;2023-05-29T04:03:06;8.90;99.90
73939;DHT22;62291;47.554;8.504;2023-05-29T04:05:32;8.90;99.90
73939;DHT22;62291;47.554;8.504;2023-05-29T04:07:57;9.00;99.90
73939;DHT22;62291;47.554;8.504;2023-05-29T04:10:23;9.00;99.90
73939;DHT22;62291;47.554;8.504;2023-05-29T04:12:50;9.30;99.90
73939;DHT22;62291;47.554;8.504;2023-05-29T04:15:16;9.90;99.90
73939;DHT22;62291;47.554;8.504;2023-05-29T04:17:41;10.40;99.90
73939;DHT22;62291;47.554;8.504;2023-05-29T04:20:07;11.00;99.90
73939;DHT22;62291;47.554;8.504;2023-05-29T04:22:36;11.50;99.90
73939;DHT22;62291;47.554;8.504;2023-05-29T04:25:01;11.90;99.90
73939;DHT22;62291;47.554;8.504;2023-05-29T04:27:29;12.40;99.90
73939;DHT22;62291;47.554;8.504;2023-05-29T04:29:55;12.90;99.90
73939;DHT22;62291;47.554;8.504;2023-05-29T04:32:21;13.40;99.90
73939;DHT22;62291;47.554;8.504;2023-05-29T04:34:46;14.10;99.90
73939;DHT22;62291;47.554;8.504;2023-05-29T04:37:13;14.60;99.90
73939;DHT22;62291;47.554;8.504;2023-05-29T04:39:38;15.00;99.90
73939;DHT22;62291;47.554;8.504;2023-05-29T04:42:04;15.40;99.30
73939;DHT22;62291;47.554;8.504;2023-05-29T04:44:30;15.80;98.60
73939;DHT22;62291;47.554;8.504;2023-05-29T04:46:56;16.20;97.30
73939;DHT22;62291;47.554;8.504;2023-05-29T04:49:24;16.30;97.40
73939;DHT22;62291;47.554;8.504;2023-05-29T04:51:50;16.80;96.30
73939;DHT22;62291;47.554;8.504;2023-05-29T04:54:18;16.90;95.60
73939;DHT22;62291;47.554;8.504;2023-05-29T04:56:45;16.80;95.90
73939;DHT22;62291;47.554;8.504;2023-05-29T04:59:11;17.00;95.60
73939;DHT22;62291;47.554;8.504;2023-05-29T05:01:37;16.90;95.50
73939;DHT22;62291;47.554;8.504;2023-05-29T05:04:03;17.00;95.00
73939;DHT22;62291;47.554;8.504;2023-05-29T05:06:28;17.50;94.30
73939;DHT22;62291;47.554;8.504;2023-05-29T05:08:54;18.30;93.90
73939;DHT22;62291;47.554;8.504;2023-05-29T05:11:22;19.10;92.20
73939;DHT22;62291;47.554;8.504;2023-05-29T05:13:48;19.80;90.70
73939;DHT22;62291;47.554;8.504;2023-05-29T05:16:13;20.20;91.50
73939;DHT22;62291;47.554;8.504;2023-05-29T05:18:39;19.50;90.50
73939;DHT22;62291;47.554;8.504;2023-05-29T05:21:04;18.90;86.20
73939;DHT22;62291;47.554;8.504;2023-05-29T05:23:31;19.30;90.10
73939;DHT22;62291;47.554;8.504;2023-05-29T05:25:56;19.70;90.90
73939;DHT22;62291;47.554;8.504;2023-05-29T05:28:22;20.00;89.20
73939;DHT22;62291;47.554;8.504;2023-05-29T05:30:47;20.40;86.40
73939;DHT22;62291;47.554;8.504;2023-05-29T05:33:13;20.80;82.70
73939;DHT22;62291;47.554;8.504;2023-05-29T05:35:39;21.40;83.90
73939;DHT22;62291;47.554;8.504;2023-05-29T05:38:04;21.80;76.90
73939;DHT22;62291;47.554;8.504;2023-05-29T05:40:30;21.80;80.30
73939;DHT22;62291;47.554;8.504;2023-05-29T05:42:55;21.70;74.00
73939;DHT22;62291;47.554;8.504;2023-05-29T05:45:21;21.30;76.20
73939;DHT22;62291;47.554;8.504;2023-05-29T05:47:46;21.90;77.00
73939;DHT22;62291;47.554;8.504;2023-05-29T05:50:12;21.90;76.50
73939;DHT22;62291;47.554;8.504;2023-05-29T05:52:38;21.80;73.50
73939;DHT22;62291;47.554;8.504;2023-05-29T05:55:03;22.20;71.80
73939;DHT22;62291;47.554;8.504;2023-05-29T05:57:29;22.20;73.60
73939;DHT22;62291;47.554;8.504;2023-05-29T05:59:58;22.40;71.00
73939;DHT22;62291;47.554;8.504;2023-05-29T06:02:23;23.20;71.00
73939;DHT22;62291;47.554;8.504;2023-05-29T06:04:49;23.40;71.30
73939;DHT22;62291;47.554;8.504;2023-05-29T06:07:15;23.30;67.10
73939;DHT22;62291;47.554;8.504;2023-05-29T06:09:40;23.00;67.70
73939;DHT22;62291;47.554;8.504;2023-05-29T06:12:07;22.70;68.40
73939;DHT22;62291;47.554;8.504;2023-05-29T06:14:33;23.20;67.50
73939;DHT22;62291;47.554;8.504;2023-05-29T06:16:59;23.10;64.60
73939;DHT22;62291;47.554;8.504;2023-05-29T06:19:25;23.60;65.00
73939;DHT22;62291;47.554;8.504;2023-05-29T06:21:50;24.60;63.80
73939;DHT22;62291;47.554;8.504;2023-05-29T06:24:16;25.00;61.00
73939;DHT22;62291;47.554;8.504;2023-05-29T06:26:42;25.60;58.90
73939;DHT22;62291;47.554;8.504;2023-05-29T06:29:07;26.00;61.70
73939;DHT22;62291;47.554;8.504;2023-05-29T06:31:33;25.80;60.40
73939;DHT22;62291;47.554;8.504;2023-05-29T06:33:59;25.80;59.40
73939;DHT22;62291;47.554;8.504;2023-05-29T06:36:24;26.40;59.30
73939;DHT22;62291;47.554;8.504;2023-05-29T06:38:51;26.80;57.10
73939;DHT22;62291;47.554;8.504;2023-05-29T06:41:17;27.10;56.10
73939;DHT22;62291;47.554;8.504;2023-05-29T06:43:42;26.90;56.50
73939;DHT22;62291;47.554;8.504;2023-05-29T06:46:08;26.20;56.10
73939;DHT22;62291;47.554;8.504;2023-05-29T06:48:34;25.90;56.90
73939;DHT22;62291;47.554;8.504;2023-05-29T06:51:00;25.60;57.50
73939;DHT22;62291;47.554;8.504;2023-05-29T06:53:26;25.00;58.90
73939;DHT22;62291;47.554;8.504;2023-05-29T06:55:52;25.10;58.20
73939;DHT22;62291;47.554;8.504;2023-05-29T06:58:17;25.60;57.90
73939;DHT22;62291;47.554;8.504;2023-05-29T07:00:43;26.40;59.00
73939;DHT22;62291;47.554;8.504;2023-05-29T07:03:09;26.70;57.40
73939;DHT22;62291;47.554;8.504;2023-05-29T07:05:34;26.30;57.20
73939;DHT22;62291;47.554;8.504;2023-05-29T07:08:00;25.30;59.40
73939;DHT22;62291;47.554;8.504;2023-05-29T07:10:25;25.90;58.10
73939;DHT22;62291;47.554;8.504;2023-05-29T07:12:51;25.80;58.20
73939;DHT22;62291;47.554;8.504;2023-05-29T07:15:16;26.40;57.50
73939;DHT22;62291;47.554;8.504;2023-05-29T07:17:42;26.70;57.70
73939;DHT22;62291;47.554;8.504;2023-05-29T07:20:08;26.30;58.00
73939;DHT22;62291;47.554;8.504;2023-05-29T07:22:34;25.90;59.10
73939;DHT22;62291;47.554;8.504;2023-05-29T07:25:00;25.30;60.40
73939;DHT22;62291;47.554;8.504;2023-05-29T07:27:25;25.70;60.10
73939;DHT22;62291;47.554;8.504;2023-05-29T07:29:51;25.10;59.10
73939;DHT22;62291;47.554;8.504;2023-05-29T07:32:16;25.50;58.80
73939;DHT22;62291;47.554;8.504;2023-05-29T07:34:42;26.40;58.80
73939;DHT22;62291;47.554;8.504;2023-05-29T07:37:08;26.50;58.10
73939;DHT22;62291;47.554;8.504;2023-05-29T07:39:34;26.20;58.60
73939;DHT22;62291;47.554;8.504;2023-05-29T07:42:00;26.70;59.20
73939;DHT22;62291;47.554;8.504;2023-05-29T07:44:28;27.20;58.10
73939;DHT22;62291;47.554;8.504;2023-05-29T07:46:54;27.40;56.60
73939;DHT22;62291;47.554;8.504;2023-05-29T07:49:20;27.60;56.30
73939;DHT22;62291;47.554;8.504;2023-05-29T07:51:45;27.70;54.50
73939;DHT22;62291;47.554;8.504;2023-05-29T07:54:11;27.50;57.00
73939;DHT22;62291;47.554;8.504;2023-05-29T07:56:37;27.50;57.20
73939;DHT22;62291;47.554;8.504;2023-05-29T07:59:03;27.50;56.90
73939;DHT22;62291;47.554;8.504;2023-05-29T08:01:29;27.10;56.70
73939;DHT22;62291;47.554;8.504;2023-05-29T08:03:55;26.60;57.60
73939;DHT22;62291;47.554;8.504;2023-05-29T08:06:20;26.60;57.60
73939;DHT22;62291;47.554;8.504;2023-05-29T08:08:46;26.90;57.90
73939;DHT22;62291;47.554;8.504;2023-05-29T08:11:12;26.50;57.50
73939;DHT22;62291;47.554;8.504;2023-05-29T08:13:38;26.30;58.20
73939;DHT22;62291;47.554;8.504;2023-05-29T08:16:03;26.40;60.00
73939;DHT22;62291;47.554;8.504;2023-05-29T08:18:30;26.60;57.40
73939;DHT22;62291;47.554;8.504;2023-05-29T08:20:56;27.00;56.70
73939;DHT22;62291;47.554;8.504;2023-05-29T08:23:21;26.80;56.90
73939;DHT22;62291;47.554;8.504;2023-05-29T08:25:47;26.70;58.70
73939;DHT22;62291;47.554;8.504;2023-05-29T08:28:14;26.60;59.40
73939;DHT22;62291;47.554;8.504;2023-05-29T08:30:39;26.50;58.00
73939;DHT22;62291;47.554;8.504;2023-05-29T08:33:05;27.30;57.60
73939;DHT22;62291;47.554;8.504;2023-05-29T08:35:30;27.40;57.00
73939;DHT22;62291;47.554;8.504;2023-05-29T08:37:56;28.00;57.80
73939;DHT22;62291;47.554;8.504;2023-05-29T08:40:22;28.30;55.80
73939;DHT22;62291;47.554;8.504;2023-05-29T08:42:50;27.90;56.30
73939;DHT22;62291;47.554;8.504;2023-05-29T08:45:16;27.30;56.70
73939;DHT22;62291;47.554;8.504;2023-05-29T08:47:43;27.60;58.10
73939;DHT22;62291;47.554;8.504;2023-05-29T08:50:10;27.70;56.00
73939;DHT22;62291;47.554;8.504;2023-05-29T08:52:35;27.50;57.00
73939;DHT22;62291;47.554;8.504;2023-05-29T08:55:01;27.50;57.90
73939;DHT22;62291;47.554;8.504;2023-05-29T08:57:28;27.40;57.30
73939;DHT22;62291;47.554;8.504;2023-05-29T08:59:53;27.60;57.20
73939;DHT22;62291;47.554;8.504;2023-05-29T09:02:20;27.80;56.00
73939;DHT22;62291;47.554;8.504;2023-05-29T09:04:47;27.90;59.60
73939;DHT22;62291;47.554;8.504;2023-05-29T09:07:18;27.80;56.00
73939;DHT22;62291;47.554;8.504;2023-05-29T09:09:44;27.90;55.40
73939;DHT22;62291;47.554;8.504;2023-05-29T09:12:10;27.80;57.30
73939;DHT22;62291;47.554;8.504;2023-05-29T09:14:37;27.20;55.90
73939;DHT22;62291;47.554;8.504;2023-05-29T09:17:03;27.20;57.00
73939;DHT22;62291;47.554;8.504;2023-05-29T09:19:32;27.20;56.80
73939;DHT22;62291;47.554;8.504;2023-05-29T09:22:04;27.50;57.20
73939;DHT22;62291;47.554;8.504;2023-05-29T09:24:33;27.70;55.50
73939;DHT22;62291;47.554;8.504;2023-05-29T09:27:00;27.60;55.20
73939;DHT22;62291;47.554;8.504;2023-05-29T09:29:26;27.10;57.10
73939;DHT22;62291;47.554;8.504;2023-05-29T09:31:52;27.60;56.70
73939;DHT22;62291;47.554;8.504;2023-05-29T09:34:17;28.00;57.00
73939;DHT22;62291;47.554;8.504;2023-05-29T09:36:43;27.90;57.40
73939;DHT22;62291;47.554;8.504;2023-05-29T09:39:08;28.10;54.90
73939;DHT22;62291;47.554;8.504;2023-05-29T09:41:44;28.10;56.20
73939;DHT22;62291;47.554;8.504;2023-05-29T09:44:13;27.80;55.70
73939;DHT22;62291;47.554;8.504;2023-05-29T09:46:42;27.70;54.60
73939;DHT22;62291;47.554;8.504;2023-05-29T09:49:11;26.70;55.10
73939;DHT22;62291;47.554;8.504;2023-05-29T09:51:36;26.50;57.40
73939;DHT22;62291;47.554;8.504;2023-05-29T09:54:15;26.30;57.40
73939;DHT22;62291;47.554;8.504;2023-05-29T09:56:42;26.40;56.90
73939;DHT22;62291;47.554;8.504;2023-05-29T09:59:11;26.60;56.70
73939;DHT22;62291;47.554;8.504;2023-05-29T10:01:38;26.90;58.00
73939;DHT22;62291;47.554;8.504;2023-05-29T10:04:04;27.20;55.80
73939;DHT22;62291;47.554;8.504;2023-05-29T10:06:30;26.90;54.40
73939;DHT22;62291;47.554;8.504;2023-05-29T10:08:57;27.10;56.30
73939;DHT22;62291;47.554;8.504;2023-05-29T10:11:23;27.10;55.40
73939;DHT22;62291;47.554;8.504;2023-05-29T10:13:51;27.30;58.50
73939;DHT22;62291;47.554;8.504;2023-05-29T10:16:19;27.10;55.80
73939;DHT22;62291;47.554;8.504;2023-05-29T10:18:47;27.00;56.70
73939;DHT22;62291;47.554;8.504;2023-05-29T10:21:15;26.50;55.40
73939;DHT22;62291;47.554;8.504;2023-05-29T10:23:42;26.40;56.10
73939;DHT22;62291;47.554;8.504;2023-05-29T10:26:12;26.30;56.10
73939;DHT22;62291;47.554;8.504;2023-05-29T10:28:40;26.50;56.60
73939;DHT22;62291;47.554;8.504;2023-05-29T10:31:08;26.60;57.20
73939;DHT22;62291;47.554;8.504;2023-05-29T10:36:19;26.20;55.50
73939;DHT22;62291;47.554;8.504;2023-05-29T10:38:47;26.00;55.00
73939;DHT22;62291;47.554;8.504;2023-05-29T10:43:54;26.00;55.90
73939;DHT22;62291;47.554;8.504;2023-05-29T10:46:20;26.10;56.70
73939;DHT22;62291;47.554;8.504;2023-05-29T10:48:47;26.60;57.00
73939;DHT22;62291;47.554;8.504;2023-05-29T10:51:24;27.10;55.10
73939;DHT22;62291;47.554;8.504;2023-05-29T10:53:50;27.30;55.10
73939;DHT22;62291;47.554;8.504;2023-05-29T10:56:21;27.30;55.70
73939;DHT22;62291;47.554;8.504;2023-05-29T10:58:52;27.20;54.50
73939;DHT22;62291;47.554;8.504;2023-05-29T11:01:20;27.30;54.90
73939;DHT22;62291;47.554;8.504;2023-05-29T11:03:46;27.90;55.70
73939;DHT22;62291;47.554;8.504;2023-05-29T11:06:21;27.80;50.50
73939;DHT22;62291;47.554;8.504;2023-05-29T11:08:55;27.50;52.10
73939;DHT22;62291;47.554;8.504;2023-05-29T11:13:54;26.90;52.50
73939;DHT22;62291;47.554;8.504;2023-05-29T11:18:55;27.10;52.50
73939;DHT22;62291;47.554;8.504;2023-05-29T11:23:51;27.00;52.40
73939;DHT22;62291;47.554;8.504;2023-05-29T11:26:17;27.00;50.80
73939;DHT22;62291;47.554;8.504;2023-05-29T11:28:43;26.90;50.10
73939;DHT22;62291;47.554;8.504;2023-05-29T11:31:08;26.60;51.00
73939;DHT22;62291;47.554;8.504;2023-05-29T11:33:35;26.60;51.00
73939;DHT22;62291;47.554;8.504;2023-05-29T11:36:04;26.70;51.90
73939;DHT22;62291;47.554;8.504;2023-05-29T11:38:30;26.60;52.70
73939;DHT22;62291;47.554;8.504;2023-05-29T11:40:56;26.30;51.30
73939;DHT22;62291;47.554;8.504;2023-05-29T11:43:23;26.00;51.90
73939;DHT22;62291;47.554;8.504;2023-05-29T11:45:49;26.20;52.00
73939;DHT22;62291;47.554;8.504;2023-05-29T11:48:15;26.40;53.10
73939;DHT22;62291;47.554;8.504;2023-05-29T11:50:40;26.60;52.60
73939;DHT22;62291;47.554;8.504;2023-05-29T11:53:06;26.50;51.50
73939;DHT22;62291;47.554;8.504;2023-05-29T11:55:32;26.50;53.80
73939;DHT22;62291;47.554;8.504;2023-05-29T11:58:02;26.50;54.00
73939;DHT22;62291;47.554;8.504;2023-05-29T12:00:32;26.30;51.00
73939;DHT22;62291;47.554;8.504;2023-05-29T12:02:58;26.20;52.20
73939;DHT22;62291;47.554;8.504;2023-05-29T12:05:24;26.00;51.80
73939;DHT22;62291;47.554;8.504;2023-05-29T12:07:50;26.20;53.20
73939;DHT22;62291;47.554;8.504;2023-05-29T12:10:16;26.30;50.50
73939;DHT22;62291;47.554;8.504;2023-05-29T12:12:46;26.20;50.30
73939;DHT22;62291;47.554;8.504;2023-05-29T12:15:12;25.90;51.70
73939;DHT22;62291;47.554;8.504;2023-05-29T12:17:38;25.90;50.80
73939;DHT22;62291;47.554;8.504;2023-05-29T12:20:06;25.80;52.50
73939;DHT22;62291;47.554;8.504;2023-05-29T12:22:35;25.60;51.20
73939;DHT22;62291;47.554;8.504;2023-05-29T12:25:07;25.90;53.90
73939;DHT22;62291;47.554;8.504;2023-05-29T12:27:33;25.80;51.80
73939;DHT22;62291;47.554;8.504;2023-05-29T12:30:07;25.80;52.60
73939;DHT22;62291;47.554;8.504;2023-05-29T12:32:43;26.00;51.60
73939;DHT22;62291;47.554;8.504;2023-05-29T12:35:19;26.00;50.60
73939;DHT22;62291;47.554;8.504;2023-05-29T12:37:45;25.70;51.40
73939;DHT22;62291;47.554;8.504;2023-05-29T12:40:18;25.90;52.40
73939;DHT22;62291;47.554;8.504;2023-05-29T12:42:45;26.20;52.90
73939;DHT22;62291;47.554;8.504;2023-05-29T12:45:11;26.30;55.20
73939;DHT22;62291;47.554;8.504;2023-05-29T12:47:37;26.40;52.60
73939;DHT22;62291;47.554;8.504;2023-05-29T12:50:19;26.40;49.60
73939;DHT22;62291;47.554;8.504;2023-05-29T12:52:45;26.10;48.90
73939;DHT22;62291;47.554;8.504;2023-05-29T12:55:10;25.90;50.80
73939;DHT22;62291;47.554;8.504;2023-05-29T12:57:36;25.80;51.10
73939;DHT22;62291;47.554;8.504;2023-05-29T13:00:01;25.80;52.00
73939;DHT22;62291;47.554;8.504;2023-05-29T13:02:27;25.90;51.80
73939;DHT22;62291;47.554;8.504;2023-05-29T13:04:54;26.10;53.30
73939;DHT22;62291;47.554;8.504;2023-05-29T13:07:20;25.90;50.10
73939;DHT22;62291;47.554;8.504;2023-05-29T13:09:45;25.70;49.70
73939;DHT22;62291;47.554;8.504;2023-05-29T13:12:12;25.60;50.80
73939;DHT22;62291;47.554;8.504;2023-05-29T13:14:37;25.70;52.60
73939;DHT22;62291;47.554;8.504;2023-05-29T13:17:03;25.90;51.10
73939;DHT22;62291;47.554;8.504;2023-05-29T13:19:29;26.00;52.70
73939;DHT22;62291;47.554;8.504;2023-05-29T13:21:54;26.00;52.80
73939;DHT22;62291;47.554;8.504;2023-05-29T13:24:20;26.00;55.70
73939;DHT22;62291;47.554;8.504;2023-05-29T13:26:45;25.70;55.50
73939;DHT22;62291;47.554;8.504;2023-05-29T13:29:11;25.80;55.20
73939;DHT22;62291;47.554;8.504;2023-05-29T13:31:36;25.80;56.20
73939;DHT22;62291;47.554;8.504;2023-05-29T13:34:02;26.00;54.00
73939;DHT22;62291;47.554;8.504;2023-05-29T13:36:27;26.10;54.00
73939;DHT22;62291;47.554;8.504;2023-05-29T13:38:53;25.80;53.90
73939;DHT22;62291;47.554;8.504;2023-05-29T13:41:18;25.50;52.30
73939;DHT22;62291;47.554;8.504;2023-05-29T13:43:44;25.40;52.90
73939;DHT22;62291;47.554;8.504;2023-05-29T13:46:10;25.20;54.50
73939;DHT22;62291;47.554;8.504;2023-05-29T13:48:36;25.30;57.80
73939;DHT22;62291;47.554;8.504;2023-05-29T13:51:01;25.00;52.90
73939;DHT22;62291;47.554;8.504;2023-05-29T13:53:27;24.90;52.60
73939;DHT22;62291;47.554;8.504;2023-05-29T13:55:52;24.90;53.50
73939;DHT22;62291;47.554;8.504;2023-05-29T13:58:18;24.90;54.80
73939;DHT22;62291;47.554;8.504;2023-05-29T14:00:43;25.00;55.50
73939;DHT22;62291;47.554;8.504;2023-05-29T14:03:09;25.00;55.00
73939;DHT22;62291;47.554;8.504;2023-05-29T14:05:35;25.10;55.70
73939;DHT22;62291;47.554;8.504;2023-05-29T14:08:00;25.10;53.90
73939;DHT22;62291;47.554;8.504;2023-05-29T14:10:26;25.00;55.30
73939;DHT22;62291;47.554;8.504;2023-05-29T14:12:51;25.10;55.00
73939;DHT22;62291;47.554;8.504;2023-05-29T14:15:17;25.00;51.70
73939;DHT22;62291;47.554;8.504;2023-05-29T14:17:43;24.90;52.40
73939;DHT22;62291;47.554;8.504;2023-05-29T14:20:08;25.00;52.80
73939;DHT22;62291;47.554;8.504;2023-05-29T14:22:34;25.00;52.20
73939;DHT22;62291;47.554;8.504;2023-05-29T14:25:00;25.00;53.50
73939;DHT22;62291;47.554;8.504;2023-05-29T14:27:26;24.90;54.20
73939;DHT22;62291;47.554;8.504;2023-05-29T14:29:52;24.80;52.70
73939;DHT22;62291;47.554;8.504;2023-05-29T14:32:17;24.80;52.30
73939;DHT22;62291;47.554;8.504;2023-05-29T14:34:43;24.90;53.80
73939;DHT22;62291;47.554;8.504;2023-05-29T14:37:09;25.00;52.90
73939;DHT22;62291;47.554;8.504;2023-05-29T14:39:34;25.00;52.00
73939;DHT22;62291;47.554;8.504;2023-05-29T14:42:00;24.90;52.00
73939;DHT22;62291;47.554;8.504;2023-05-29T14:44:25;24.70;52.10
73939;DHT22;62291;47.554;8.504;2023-05-29T14:46:51;24.50;54.30
73939;DHT22;62291;47.554;8.504;2023-05-29T14:49:16;24.60;52.10
73939;DHT22;62291;47.554;8.504;2023-05-29T14:51:42;24.50;52.60
73939;DHT22;62291;47.554;8.504;2023-05-29T14:54:08;24.60;52.40
73939;DHT22;62291;47.554;8.504;2023-05-29T14:56:34;24.50;52.00
73939;DHT22;62291;47.554;8.504;2023-05-29T14:59:00;24.50;51.80
73939;DHT22;62291;47.554;8.504;2023-05-29T15:01:25;24.60;52.80
73939;DHT22;62291;47.554;8.504;2023-05-29T15:03:51;24.80;53.00
73939;DHT22;62291;47.554;8.504;2023-05-29T15:06:16;24.70;51.10
73939;DHT22;62291;47.554;8.504;2023-05-29T15:08:42;24.40;52.60
73939;DHT22;62291;47.554;8.504;2023-05-29T15:11:08;24.40;52.70
73939;DHT22;62291;47.554;8.504;2023-05-29T15:13:35;24.40;53.20
73939;DHT22;62291;47.554;8.504;2023-05-29T15:16:00;24.40;52.40
73939;DHT22;62291;47.554;8.504;2023-05-29T15:18:28;24.30;52.20
73939;DHT22;62291;47.554;8.504;2023-05-29T15:20:54;24.30;52.00
73939;DHT22;62291;47.554;8.504;2023-05-29T15:23:20;24.30;53.00
73939;DHT22;62291;47.554;8.504;2023-05-29T15:25:51;24.30;53.10
73939;DHT22;62291;47.554;8.504;2023-05-29T15:28:17;24.30;51.90
73939;DHT22;62291;47.554;8.504;2023-05-29T15:30:43;24.40;53.70
73939;DHT22;62291;47.554;8.504;2023-05-29T15:33:08;24.40;53.00
73939;DHT22;62291;47.554;8.504;2023-05-29T15:35:36;24.40;54.20
73939;DHT22;62291;47.554;8.504;2023-05-29T15:38:01;24.30;53.80
73939;DHT22;62291;47.554;8.504;2023-05-29T15:40:27;24.30;54.30
73939;DHT22;62291;47.554;8.504;2023-05-29T15:42:52;24.30;52.80
73939;DHT22;62291;47.554;8.504;2023-05-29T15:45:18;24.30;52.80
73939;DHT22;62291;47.554;8.504;2023-05-29T15:47:44;24.30;51.70